Allons, TN

2:10 PM CDT on August 23, 2014 (GMT -0500)
KTNALLON2 | Change Station
CLOSE
Current Station
Personal Weather Station
Location: Allons, TN
Elevation: 663 ft
Nearby Weather Stations

Elev 663 ft 36.58 °N, 85.34 °W | Updated 12 minutes ago

Scattered Clouds
Scattered Clouds
106.6 °F
Feels Like 126 °F
N
3.0
Wind Variable Wind from West

Today
High -- | Low -- °F
--% Chance of Precip.
Yesterday
High -- | Low -- °F
Precip. -- in
6:05 AM 7:21 PM
Waning Crescent, 3% visible
Pressure 30.02 in
Visibility 10.0 miles
Clouds Scattered Clouds 3800 ft
Heat Index 126 °F
Dew Point 78 °F
Humidity 40%
Rainfall 0.00 in
Snow Depth Not available.
UV 8 out of 12
Pollen 9.60 out of 12
Air Quality Not available.
Flu Activity Not available.
METAR KSRB 231855Z AUTO 36005KT 10SM SCT038 33/24 A3002 RMK

More Conditions Fewer Conditions

Pressure 30.02 in
Visibility 10.0 miles
Clouds Scattered Clouds 3800 ft
Heat Index 126 °F
Dew Point 78 °F
Humidity 40%
Rainfall 0.00 in
Snow Depth Not available.
UV 8 out of 12
Pollen 9.60 out of 12
Air Quality Not available.
Flu Activity Not available.
METAR KSRB 231855Z AUTO 36005KT 10SM SCT038 33/24 A3002 RMK

More Conditions Fewer Conditions

10-Day Weather Forecast

Almanac

Astronomy

Aug. 23, 2014 Rise Set
Actual Time 6:05 AM CDT 7:21 PM CDT
Civil Twilight 5:38 AM CDT 7:48 PM CDT
Nautical Twilight 5:06 AM CDT 8:20 PM CDT
Astronomical Twilight 4:32 AM CDT 8:53 PM CDT
Moon 4:22 AM CDT 6:05 PM CDT
Length of Visible Light 14h 10m
Length of Day
13h 16m
Tomorrow will be 2m 8s shorter.
Waning Crescent, 3% of the Moon is Illuminated
Today
Waning Crescent
Aug 25
New
Sep 2
First Quarter
Sep 8
Full
Sep 15
Last Quarter

Today's Extremes

State Highs State Lows

Community

WunderPhotos

Upload Photos

1,746,585 photos uploaded!

WunderBlogs® & News

Nearby

Snow Depth

Station Depth Elevation
No new snow has been reported.

Earthquake Activity

City Distance Mag. Time & Date
No recent earthquake activity has been reported nearby.
Minimum magnitude displayed is 2.5.

Coastal Water Temperatures

Place Temperature
No Stations Reporting

Nearby Weather Stations